createdAt,value
2022-09-12T00:01:53.193Z,13.60
2022-09-12T00:04:20.200Z,13.50
2022-09-12T00:06:47.040Z,13.50
2022-09-12T00:09:15.438Z,13.50
2022-09-12T00:11:44.880Z,13.40
2022-09-12T00:14:15.221Z,13.50
2022-09-12T00:16:43.095Z,13.40
2022-09-12T00:19:11.598Z,13.40
2022-09-12T00:21:39.973Z,13.30
2022-09-12T00:24:07.292Z,13.30
2022-09-12T00:26:34.265Z,13.30
2022-09-12T00:29:01.224Z,13.30
2022-09-12T00:31:28.506Z,13.30
2022-09-12T00:33:57.530Z,13.30
2022-09-12T00:36:25.614Z,13.20
2022-09-12T00:38:54.642Z,13.20
2022-09-12T00:41:26.262Z,13.20
2022-09-12T00:43:59.655Z,13.20
2022-09-12T00:46:33.224Z,13.10
2022-09-12T00:49:10.084Z,13.10
2022-09-12T00:51:37.779Z,13.20
2022-09-12T00:54:10.646Z,13.20
2022-09-12T00:56:41.337Z,13.20
2022-09-12T00:59:17.662Z,13.20
2022-09-12T01:01:46.476Z,13.20
2022-09-12T01:04:13.971Z,13.10
2022-09-12T01:06:43.670Z,13.10
2022-09-12T01:09:18.088Z,13.10
2022-09-12T01:11:47.096Z,13.00
2022-09-12T01:14:14.973Z,13.00
2022-09-12T01:16:42.170Z,13.00
2022-09-12T01:19:28.537Z,13.00
2022-09-12T01:22:32.993Z,12.90
2022-09-12T01:25:34.027Z,12.90
2022-09-12T01:28:22.730Z,12.90
2022-09-12T01:31:06.855Z,12.80
2022-09-12T01:33:58.075Z,12.80
2022-09-12T01:36:38.178Z,12.80
2022-09-12T01:39:25.184Z,12.80
2022-09-12T01:42:24.460Z,12.70
2022-09-12T01:45:28.221Z,12.70
2022-09-12T01:48:08.685Z,12.80
2022-09-12T01:50:44.279Z,12.80
2022-09-12T01:53:27.736Z,12.80
2022-09-12T01:56:05.468Z,12.70
2022-09-12T01:58:52.036Z,12.70
2022-09-12T02:01:34.013Z,12.60
2022-09-12T02:04:09.981Z,12.60
2022-09-12T02:07:10.734Z,12.60
2022-09-12T02:09:44.514Z,12.60
2022-09-12T02:12:16.256Z,12.60
2022-09-12T02:14:49.005Z,12.60
2022-09-12T02:17:25.125Z,12.50
2022-09-12T02:19:57.149Z,12.50
2022-09-12T02:22:27.219Z,12.50
2022-09-12T02:24:58.923Z,12.60
2022-09-12T02:27:42.443Z,12.60
2022-09-12T02:30:10.772Z,12.50
2022-09-12T02:32:52.812Z,12.50
2022-09-12T02:35:42.361Z,12.40
2022-09-12T02:38:26.734Z,12.40
2022-09-12T02:40:54.503Z,12.40
2022-09-12T02:43:21.569Z,12.50
2022-09-12T02:45:48.783Z,12.40
2022-09-12T02:48:21.303Z,12.40
2022-09-12T02:50:48.493Z,12.30
2022-09-12T02:53:15.780Z,12.40
2022-09-12T02:55:44.061Z,12.30
2022-09-12T02:58:17.098Z,12.30
2022-09-12T03:01:16.540Z,12.20
2022-09-12T03:03:46.729Z,12.20
2022-09-12T03:06:49.010Z,12.20
2022-09-12T03:09:22.509Z,12.20
2022-09-12T03:11:55.126Z,12.10
2022-09-12T03:14:51.545Z,12.10
2022-09-12T03:17:40.567Z,12.10
2022-09-12T03:20:36.837Z,12.10
2022-09-12T03:23:10.618Z,12.10
2022-09-12T03:25:44.614Z,12.10
2022-09-12T03:28:15.344Z,12.10
2022-09-12T03:30:45.121Z,12.10
2022-09-12T03:33:13.996Z,12.10
2022-09-12T03:35:41.259Z,12.10
2022-09-12T03:38:08.744Z,12.10
2022-09-12T03:40:36.979Z,12.20
2022-09-12T03:43:05.432Z,12.10
2022-09-12T03:45:32.404Z,12.10
2022-09-12T03:47:59.558Z,12.10
2022-09-12T03:50:26.784Z,12.00
2022-09-12T03:52:53.808Z,12.00
2022-09-12T03:55:20.643Z,12.10
2022-09-12T03:57:47.488Z,12.00
2022-09-12T04:00:19.017Z,12.00
2022-09-12T04:02:46.949Z,12.00
2022-09-12T04:05:13.870Z,11.90
2022-09-12T04:07:40.712Z,12.00
2022-09-12T04:10:09.519Z,12.00
2022-09-12T04:12:36.657Z,11.90
2022-09-12T04:15:03.726Z,12.00
2022-09-12T04:17:30.668Z,11.90
2022-09-12T04:19:57.422Z,11.90
2022-09-12T04:22:24.272Z,11.80
2022-09-12T04:24:51.493Z,11.80
2022-09-12T04:27:18.315Z,11.80
2022-09-12T04:29:45.071Z,11.80
2022-09-12T04:32:12.198Z,11.80
2022-09-12T04:34:39.180Z,11.80
2022-09-12T04:37:06.070Z,11.80
2022-09-12T04:39:32.908Z,11.70
2022-09-12T04:42:00.860Z,11.70
2022-09-12T04:44:27.760Z,11.70
2022-09-12T04:46:54.697Z,11.70
2022-09-12T04:49:22.159Z,11.70
2022-09-12T04:51:50.381Z,11.60
2022-09-12T04:54:19.646Z,11.60
2022-09-12T04:56:49.209Z,11.70
2022-09-12T04:59:17.618Z,11.70
2022-09-12T05:01:44.457Z,11.60
2022-09-12T05:04:13.139Z,11.60
2022-09-12T05:06:41.415Z,11.60
2022-09-12T05:09:11.598Z,11.60
2022-09-12T05:12:03.118Z,11.60
2022-09-12T05:14:28.597Z,11.70
2022-09-12T05:16:59.788Z,11.60
2022-09-12T05:19:27.354Z,11.70
2022-09-12T05:21:54.301Z,11.60
2022-09-12T05:24:21.257Z,11.60
2022-09-12T05:26:48.132Z,11.60
2022-09-12T05:29:15.099Z,11.60
2022-09-12T05:31:42.121Z,11.70
2022-09-12T05:34:10.119Z,11.60
2022-09-12T05:36:42.608Z,11.60
2022-09-12T05:39:12.103Z,11.60
2022-09-12T05:41:39.121Z,11.60
2022-09-12T05:44:07.738Z,11.60
2022-09-12T05:46:40.381Z,11.60
2022-09-12T05:49:10.573Z,11.70
2022-09-12T05:51:40.857Z,11.70
2022-09-12T05:54:10.521Z,11.70
2022-09-12T05:56:40.262Z,11.80
2022-09-12T05:59:12.352Z,11.80
2022-09-12T06:01:39.799Z,11.80
2022-09-12T06:04:07.995Z,11.90
2022-09-12T06:06:41.866Z,11.90
2022-09-12T06:09:09.472Z,11.90
2022-09-12T06:11:37.970Z,11.90
2022-09-12T06:14:05.104Z,11.90
2022-09-12T06:16:33.674Z,12.00
2022-09-12T06:19:03.692Z,12.00
2022-09-12T06:21:31.311Z,12.10
2022-09-12T06:23:58.990Z,12.10
2022-09-12T06:26:27.026Z,12.10
2022-09-12T06:28:55.398Z,12.20
2022-09-12T06:31:25.867Z,12.20
2022-09-12T06:33:54.166Z,12.30
2022-09-12T06:36:37.283Z,12.30
2022-09-12T06:39:24.550Z,12.40
2022-09-12T06:41:52.214Z,12.50
2022-09-12T06:44:29.849Z,12.50
2022-09-12T06:46:56.954Z,12.60
2022-09-12T06:49:23.689Z,12.70
2022-09-12T06:51:50.510Z,12.70
2022-09-12T06:54:17.498Z,12.80
2022-09-12T06:56:44.940Z,12.90
2022-09-12T06:59:11.920Z,13.00
2022-09-12T07:01:40.110Z,13.10
2022-09-12T07:04:07.343Z,13.10
2022-09-12T07:06:42.867Z,13.20
2022-09-12T07:09:16.456Z,13.30
2022-09-12T07:11:44.599Z,13.40
2022-09-12T07:14:14.045Z,13.50
2022-09-12T07:16:41.786Z,13.70
2022-09-12T07:19:09.745Z,13.70
2022-09-12T07:21:39.989Z,13.80
2022-09-12T07:24:09.465Z,13.90
2022-09-12T07:26:36.814Z,13.90
2022-09-12T07:29:32.432Z,14.00
2022-09-12T07:31:51.954Z,14.10
2022-09-12T07:34:18.676Z,14.10
2022-09-12T07:36:45.432Z,14.20
2022-09-12T07:39:12.410Z,14.30
2022-09-12T07:41:39.349Z,14.30
2022-09-12T07:44:07.164Z,14.50
2022-09-12T07:46:34.870Z,14.50
2022-09-12T07:49:02.371Z,14.50
2022-09-12T07:51:30.642Z,14.60
2022-09-12T07:53:58.297Z,14.60
2022-09-12T07:56:29.656Z,14.70
2022-09-12T07:58:57.650Z,14.80
2022-09-12T08:01:24.764Z,14.80
2022-09-12T08:03:57.268Z,14.90
2022-09-12T08:06:25.457Z,15.00
2022-09-12T08:08:54.725Z,15.00
2022-09-12T08:11:23.048Z,15.10
2022-09-12T08:13:55.406Z,15.10
2022-09-12T08:16:24.695Z,15.20
2022-09-12T08:18:51.731Z,15.30
2022-09-12T08:21:20.955Z,15.30
2022-09-12T08:23:51.383Z,15.40
2022-09-12T08:26:18.118Z,15.50
2022-09-12T08:28:45.862Z,15.60
2022-09-12T08:31:14.996Z,15.60
2022-09-12T08:33:41.909Z,15.70
2022-09-12T08:36:15.386Z,15.70
2022-09-12T08:38:45.280Z,15.80
2022-09-12T08:41:18.339Z,15.90
2022-09-12T08:44:07.141Z,15.90
2022-09-12T08:46:48.069Z,16.00
2022-09-12T08:49:25.282Z,16.10
2022-09-12T08:51:52.440Z,16.20
2022-09-12T08:54:27.798Z,16.30
2022-09-12T08:57:01.570Z,16.40
2022-09-12T08:59:37.584Z,16.40
2022-09-12T09:02:20.015Z,16.50
2022-09-12T09:05:07.679Z,16.50
2022-09-12T09:07:58.835Z,16.60
2022-09-12T09:10:43.683Z,16.70
2022-09-12T09:13:54.249Z,16.80
2022-09-12T09:16:32.155Z,16.90
2022-09-12T09:19:04.230Z,17.00
2022-09-12T09:21:54.481Z,17.10
2022-09-12T09:24:27.189Z,17.10
2022-09-12T09:27:00.206Z,17.10
2022-09-12T09:29:33.849Z,17.20
2022-09-12T09:32:04.402Z,17.20
2022-09-12T09:34:31.716Z,17.30
2022-09-12T09:37:20.926Z,17.40
2022-09-12T09:40:01.779Z,17.40
2022-09-12T09:42:50.407Z,17.50
2022-09-12T09:45:20.969Z,17.50
2022-09-12T09:48:25.657Z,17.60
2022-09-12T09:50:53.174Z,17.70
2022-09-12T09:53:29.517Z,17.80
2022-09-12T09:56:00.286Z,17.80
2022-09-12T09:58:34.812Z,17.80
2022-09-12T10:01:12.178Z,17.80
2022-09-12T10:03:40.214Z,17.90
2022-09-12T10:06:30.887Z,17.90
2022-09-12T10:09:25.847Z,18.00
2022-09-12T10:11:53.509Z,18.00
2022-09-12T10:14:41.631Z,18.10
2022-09-12T10:17:34.350Z,18.10
2022-09-12T10:20:21.584Z,18.20
2022-09-12T10:22:49.563Z,18.20
2022-09-12T10:25:19.785Z,18.30
2022-09-12T10:28:02.852Z,18.30
2022-09-12T10:30:29.624Z,18.40
2022-09-12T10:33:15.177Z,18.40
2022-09-12T10:35:49.405Z,18.50
2022-09-12T10:38:30.331Z,18.50
2022-09-12T10:41:01.194Z,18.50
2022-09-12T10:43:34.111Z,18.60
2022-09-12T10:46:23.051Z,18.60
2022-09-12T10:49:10.806Z,18.70
2022-09-12T10:51:37.695Z,18.70
2022-09-12T10:54:09.043Z,18.70
2022-09-12T10:56:54.698Z,18.80
2022-09-12T10:59:58.816Z,18.80
2022-09-12T11:02:38.291Z,18.80
2022-09-12T11:05:38.588Z,18.90
2022-09-12T11:08:29.925Z,18.90
2022-09-12T11:11:34.682Z,18.90
2022-09-12T11:14:30.158Z,19.00
2022-09-12T11:17:21.791Z,19.00
2022-09-12T11:20:14.437Z,19.00
2022-09-12T11:23:28.989Z,19.00
2022-09-12T11:26:34.087Z,19.10
2022-09-12T11:29:49.914Z,19.10
2022-09-12T11:32:32.620Z,19.20
2022-09-12T11:35:26.128Z,19.20
2022-09-12T11:38:15.068Z,19.20
2022-09-12T11:41:03.849Z,19.30
2022-09-12T11:43:52.882Z,19.30
2022-09-12T11:46:39.536Z,19.30
2022-09-12T11:49:17.048Z,19.40
2022-09-12T11:52:16.875Z,19.40
2022-09-12T11:55:03.790Z,19.40
2022-09-12T11:57:44.054Z,19.40
2022-09-12T12:00:20.260Z,19.50
2022-09-12T12:03:07.430Z,19.50
2022-09-12T12:05:53.359Z,19.50
2022-09-12T12:08:25.609Z,19.60
2022-09-12T12:11:02.173Z,19.60
2022-09-12T12:13:56.512Z,19.70
2022-09-12T12:16:26.426Z,19.70
2022-09-12T12:18:59.504Z,19.70
2022-09-12T12:21:29.423Z,19.70
2022-09-12T12:24:08.575Z,19.60
2022-09-12T12:27:01.151Z,19.70
2022-09-12T12:29:45.263Z,19.70
2022-09-12T12:32:12.967Z,19.70
2022-09-12T12:34:53.412Z,19.70
2022-09-12T12:37:29.934Z,19.80
2022-09-12T12:40:08.501Z,19.80
2022-09-12T12:42:35.322Z,19.90
2022-09-12T12:45:20.260Z,19.90
2022-09-12T12:48:11.319Z,20.00
2022-09-12T12:50:38.468Z,20.00
2022-09-12T12:53:20.399Z,20.00
2022-09-12T12:55:53.238Z,20.10
2022-09-12T12:58:37.295Z,20.00
2022-09-12T13:01:07.206Z,20.10
2022-09-12T13:03:35.250Z,20.10
2022-09-12T13:06:05.251Z,20.10
2022-09-12T13:08:34.810Z,20.20
2022-09-12T13:11:30.995Z,20.20
2022-09-12T13:14:01.865Z,20.20
2022-09-12T13:16:40.706Z,20.30
2022-09-12T13:19:24.422Z,20.30
2022-09-12T13:22:03.219Z,20.30
2022-09-12T13:24:30.200Z,20.30
2022-09-12T13:26:57.861Z,20.30
2022-09-12T13:29:27.372Z,20.40
2022-09-12T13:31:56.363Z,20.30
2022-09-12T13:34:31.360Z,20.30
2022-09-12T13:37:34.221Z,20.40
2022-09-12T13:40:41.150Z,20.40
2022-09-12T13:43:22.785Z,20.40
2022-09-12T13:45:50.814Z,20.40
2022-09-12T13:48:22.066Z,20.40
2022-09-12T13:51:01.560Z,20.40
2022-09-12T13:53:42.525Z,20.40
2022-09-12T13:56:17.361Z,20.40
2022-09-12T13:58:59.264Z,20.40
2022-09-12T14:01:39.938Z,20.40
2022-09-12T14:04:42.190Z,20.40
2022-09-12T14:07:20.277Z,20.40
2022-09-12T14:09:58.225Z,20.50
2022-09-12T14:12:34.487Z,20.40
2022-09-12T14:15:01.820Z,20.40
2022-09-12T14:17:33.714Z,20.50
2022-09-12T14:20:16.165Z,20.40
2022-09-12T14:22:43.207Z,20.40
2022-09-12T14:25:19.263Z,20.40
2022-09-12T14:27:50.786Z,20.40
2022-09-12T14:30:24.479Z,20.40
2022-09-12T14:33:12.372Z,20.40
2022-09-12T14:35:43.782Z,20.40
2022-09-12T14:38:16.703Z,20.30
2022-09-12T14:40:49.221Z,20.40
2022-09-12T14:43:29.541Z,20.30
2022-09-12T14:46:06.184Z,20.30
2022-09-12T14:48:42.652Z,20.40
2022-09-12T14:51:22.318Z,20.30
2022-09-12T14:53:49.977Z,20.30
2022-09-12T14:56:17.459Z,20.30
2022-09-12T14:58:44.307Z,20.30
2022-09-12T15:01:11.179Z,20.30
2022-09-12T15:03:49.306Z,20.30
2022-09-12T15:06:31.509Z,20.30
2022-09-12T15:09:02.376Z,20.40
2022-09-12T15:11:29.372Z,20.40
2022-09-12T15:13:56.272Z,20.40
2022-09-12T15:16:23.417Z,20.40
2022-09-12T15:18:50.279Z,20.40
2022-09-12T15:21:20.441Z,20.40
2022-09-12T15:23:51.953Z,20.40
2022-09-12T15:26:23.979Z,20.40
2022-09-12T15:28:51.204Z,20.40
2022-09-12T15:31:31.901Z,20.40
2022-09-12T15:34:01.286Z,20.40
2022-09-12T15:36:32.013Z,20.40
2022-09-12T15:39:22.436Z,20.40
2022-09-12T15:42:11.150Z,20.40
2022-09-12T15:44:37.986Z,20.30
2022-09-12T15:47:05.211Z,20.30
2022-09-12T15:49:32.559Z,20.30
2022-09-12T15:52:00.514Z,20.30
2022-09-12T15:54:27.340Z,20.30
2022-09-12T15:56:54.998Z,20.30
2022-09-12T15:59:21.920Z,20.30
2022-09-12T16:01:49.311Z,20.30
2022-09-12T16:04:21.990Z,20.30
2022-09-12T16:06:48.977Z,20.30
2022-09-12T16:09:16.840Z,20.20
2022-09-12T16:11:45.151Z,20.30
2022-09-12T16:14:16.973Z,20.20
2022-09-12T16:16:44.820Z,20.20
2022-09-12T16:19:12.476Z,20.20
2022-09-12T16:21:39.269Z,20.20
2022-09-12T16:24:09.151Z,20.10
2022-09-12T16:26:36.890Z,20.10
2022-09-12T16:29:04.074Z,20.10
2022-09-12T16:31:31.070Z,20.10
2022-09-12T16:33:58.151Z,20.00
2022-09-12T16:36:25.317Z,20.00
2022-09-12T16:38:54.056Z,20.00
2022-09-12T16:41:25.097Z,20.00
2022-09-12T16:43:52.711Z,19.90
2022-09-12T16:46:25.611Z,19.90
2022-09-12T16:48:54.528Z,19.80
2022-09-12T16:51:25.071Z,19.80
2022-09-12T16:53:53.696Z,19.80
2022-09-12T16:56:22.095Z,19.80
2022-09-12T16:58:49.183Z,19.80
2022-09-12T17:01:21.517Z,19.70
2022-09-12T17:03:48.763Z,19.70
2022-09-12T17:06:18.389Z,19.70
2022-09-12T17:08:50.133Z,19.70
2022-09-12T17:11:23.079Z,19.70
2022-09-12T17:14:07.813Z,19.60
2022-09-12T17:16:38.146Z,19.70
2022-09-12T17:19:06.899Z,19.60
2022-09-12T17:21:36.111Z,19.60
2022-09-12T17:24:03.543Z,19.60
2022-09-12T17:26:30.413Z,19.50
2022-09-12T17:28:57.397Z,19.50
2022-09-12T17:31:24.297Z,19.50
2022-09-12T17:33:56.384Z,19.40
2022-09-12T17:36:23.258Z,19.40
2022-09-12T17:38:51.468Z,19.40
2022-09-12T17:41:21.905Z,19.40
2022-09-12T17:43:56.561Z,19.40
2022-09-12T17:46:26.268Z,19.40
2022-09-12T17:48:54.834Z,19.40
2022-09-12T17:51:24.898Z,19.40
2022-09-12T17:54:05.524Z,19.30
2022-09-12T17:56:33.643Z,19.30
2022-09-12T17:59:00.700Z,19.30
2022-09-12T18:01:48.087Z,19.30
2022-09-12T18:04:15.648Z,19.20
2022-09-12T18:06:47.888Z,19.20
2022-09-12T18:09:17.703Z,19.20
2022-09-12T18:11:45.032Z,19.10
2022-09-12T18:14:14.114Z,19.10
2022-09-12T18:16:41.683Z,19.10
2022-09-12T18:19:08.620Z,19.10
2022-09-12T18:21:35.952Z,19.10
2022-09-12T18:24:04.112Z,19.10
2022-09-12T18:26:32.057Z,19.00
2022-09-12T18:28:59.099Z,19.00
2022-09-12T18:31:29.505Z,19.00
2022-09-12T18:33:56.987Z,19.00
2022-09-12T18:36:24.136Z,19.00
2022-09-12T18:38:51.279Z,18.90
2022-09-12T18:41:21.998Z,18.90
2022-09-12T18:43:53.237Z,18.90
2022-09-12T18:46:20.491Z,18.90
2022-09-12T18:48:47.786Z,18.90
2022-09-12T18:51:20.491Z,18.90
2022-09-12T18:53:54.769Z,18.80
2022-09-12T18:56:23.103Z,18.80
2022-09-12T18:58:55.817Z,18.80
2022-09-12T19:01:23.845Z,18.90
2022-09-12T19:03:52.145Z,18.80
2022-09-12T19:06:24.894Z,18.80
2022-09-12T19:08:52.719Z,18.70
2022-09-12T19:11:20.648Z,18.70
2022-09-12T19:13:49.368Z,18.70
2022-09-12T19:16:19.066Z,18.80
2022-09-12T19:18:48.123Z,18.70
2022-09-12T19:21:17.932Z,18.70
2022-09-12T19:23:45.335Z,18.70
2022-09-12T19:26:14.145Z,18.60
2022-09-12T19:28:41.279Z,18.70
2022-09-12T19:31:10.566Z,18.60
2022-09-12T19:33:38.106Z,18.60
2022-09-12T19:36:21.931Z,18.60
2022-09-12T19:38:54.912Z,18.60
2022-09-12T19:41:22.202Z,18.60
2022-09-12T19:43:49.135Z,18.50
2022-09-12T19:46:18.127Z,18.50
2022-09-12T19:48:46.624Z,18.50
2022-09-12T19:51:14.800Z,18.50
2022-09-12T19:53:42.813Z,18.50
2022-09-12T19:56:11.942Z,18.40
2022-09-12T19:58:41.351Z,18.40
2022-09-12T20:01:09.792Z,18.40
2022-09-12T20:03:37.435Z,18.40
2022-09-12T20:06:16.522Z,18.40
2022-09-12T20:08:44.131Z,18.30
2022-09-12T20:11:14.001Z,18.30
2022-09-12T20:13:41.404Z,18.30
2022-09-12T20:16:30.088Z,18.30
2022-09-12T20:19:00.504Z,18.30
2022-09-12T20:21:33.033Z,18.30
2022-09-12T20:24:20.233Z,18.30
2022-09-12T20:26:47.314Z,18.20
2022-09-12T20:29:14.938Z,18.20
2022-09-12T20:31:44.910Z,18.20
2022-09-12T20:34:16.041Z,18.20
2022-09-12T20:36:43.029Z,18.20
2022-09-12T20:39:15.083Z,18.10
2022-09-12T20:41:42.184Z,18.10
2022-09-12T20:44:09.995Z,18.10
2022-09-12T20:46:37.286Z,18.10
2022-09-12T20:49:04.525Z,18.00
2022-09-12T20:51:31.491Z,18.00
2022-09-12T20:54:03.836Z,18.00
2022-09-12T20:56:32.751Z,18.00
2022-09-12T20:59:00.413Z,17.90
2022-09-12T21:01:29.756Z,17.90
2022-09-12T21:03:57.512Z,17.90
2022-09-12T21:06:26.173Z,17.90
2022-09-12T21:08:54.760Z,17.90
2022-09-12T21:11:21.721Z,17.90
2022-09-12T21:13:49.240Z,17.90
2022-09-12T21:16:19.158Z,17.80
2022-09-12T21:18:46.756Z,17.90
2022-09-12T21:21:15.712Z,17.90
2022-09-12T21:23:42.933Z,17.90
2022-09-12T21:26:10.138Z,17.90
2022-09-12T21:28:37.582Z,17.80
2022-09-12T21:31:08.835Z,17.80
2022-09-12T21:33:35.748Z,17.80
2022-09-12T21:36:04.393Z,17.80
2022-09-12T21:38:32.178Z,17.80
2022-09-12T21:41:10.451Z,17.80
2022-09-12T21:43:38.569Z,17.80
2022-09-12T21:46:06.771Z,17.70
2022-09-12T21:48:34.252Z,17.70
2022-09-12T21:51:01.513Z,17.70
2022-09-12T21:53:28.575Z,17.70
2022-09-12T21:56:00.037Z,17.70
2022-09-12T21:58:26.840Z,17.70
2022-09-12T22:00:53.784Z,17.70
2022-09-12T22:03:20.685Z,17.70
2022-09-12T22:05:51.654Z,17.60
2022-09-12T22:08:18.533Z,17.60
2022-09-12T22:10:45.452Z,17.60
2022-09-12T22:13:12.434Z,17.70
2022-09-12T22:15:40.925Z,17.70
2022-09-12T22:18:08.129Z,17.70
2022-09-12T22:20:35.030Z,17.60
2022-09-12T22:23:24.515Z,17.60
2022-09-12T22:25:55.681Z,17.70
2022-09-12T22:28:23.229Z,17.60
2022-09-12T22:30:50.414Z,17.60
2022-09-12T22:33:17.217Z,17.60
2022-09-12T22:35:44.287Z,17.60
2022-09-12T22:38:11.198Z,17.60
2022-09-12T22:40:38.340Z,17.60
2022-09-12T22:43:05.177Z,17.60
2022-09-12T22:45:32.383Z,17.70
2022-09-12T22:48:01.059Z,17.70
2022-09-12T22:50:28.633Z,17.70
2022-09-12T22:52:55.709Z,17.70
2022-09-12T22:55:22.484Z,17.70
2022-09-12T22:57:49.471Z,17.70
2022-09-12T23:00:18.039Z,17.70
2022-09-12T23:02:44.892Z,17.70
2022-09-12T23:05:12.390Z,17.70
2022-09-12T23:07:39.157Z,17.70
2022-09-12T23:10:07.037Z,17.70
2022-09-12T23:12:33.971Z,17.70
2022-09-12T23:15:00.719Z,17.70
2022-09-12T23:17:27.578Z,17.70
2022-09-12T23:19:54.330Z,17.70
2022-09-12T23:22:21.285Z,17.60
2022-09-12T23:24:48.065Z,17.60
2022-09-12T23:27:14.991Z,17.60
2022-09-12T23:29:41.770Z,17.60
2022-09-12T23:32:08.549Z,17.50
2022-09-12T23:34:36.156Z,17.50
2022-09-12T23:37:03.278Z,17.50
2022-09-12T23:39:31.327Z,17.50
2022-09-12T23:41:58.224Z,17.50
2022-09-12T23:44:25.213Z,17.50
2022-09-12T23:46:52.098Z,17.40
2022-09-12T23:49:19.868Z,17.40
2022-09-12T23:51:46.978Z,17.40
2022-09-12T23:54:14.059Z,17.40
2022-09-12T23:56:40.907Z,17.40
2022-09-12T23:59:07.904Z,17.40
